createdAt,value
2023-04-29T00:01:58.927Z,12.60
2023-04-29T00:04:32.087Z,12.50
2023-04-29T00:07:05.674Z,12.50
2023-04-29T00:09:38.691Z,12.50
2023-04-29T00:12:12.315Z,12.70
2023-04-29T00:14:45.250Z,12.40
2023-04-29T00:17:18.843Z,12.50
2023-04-29T00:19:52.468Z,12.40
2023-04-29T00:22:26.027Z,12.00
2023-04-29T00:24:58.867Z,12.50
2023-04-29T00:27:33.314Z,12.20
2023-04-29T00:30:08.564Z,12.10
2023-04-29T00:32:41.355Z,12.10
2023-04-29T00:35:14.473Z,12.10
2023-04-29T00:37:47.821Z,12.10
2023-04-29T00:40:20.811Z,12.00
2023-04-29T00:42:54.021Z,12.00
2023-04-29T00:45:27.885Z,12.00
2023-04-29T00:48:00.777Z,12.10
2023-04-29T00:50:33.732Z,12.10
2023-04-29T00:53:07.514Z,12.10
2023-04-29T00:55:43.969Z,12.00
2023-04-29T00:58:18.230Z,12.00
2023-04-29T01:00:52.646Z,12.00
2023-04-29T01:03:26.599Z,12.00
2023-04-29T01:06:08.416Z,12.10
2023-04-29T01:09:24.023Z,12.10
2023-04-29T01:12:20.719Z,12.10
2023-04-29T01:15:18.279Z,12.20
2023-04-29T01:18:12.044Z,12.20
2023-04-29T01:20:46.261Z,12.10
2023-04-29T01:23:19.096Z,12.00
2023-04-29T01:25:53.958Z,12.00
2023-04-29T01:29:08.104Z,12.00
2023-04-29T01:31:58.884Z,12.00
2023-04-29T01:34:44.716Z,12.00
2023-04-29T01:37:27.594Z,11.90
2023-04-29T01:40:15.389Z,11.90
2023-04-29T01:43:05.762Z,11.90
2023-04-29T01:45:44.839Z,11.80
2023-04-29T01:48:19.366Z,11.70
2023-04-29T01:50:52.338Z,11.70
2023-04-29T01:53:25.233Z,11.60
2023-04-29T01:55:58.916Z,11.50
2023-04-29T01:58:35.724Z,11.50
2023-04-29T02:01:16.411Z,11.50
2023-04-29T02:03:50.046Z,11.50
2023-04-29T02:06:24.486Z,11.50
2023-04-29T02:09:02.470Z,11.50
2023-04-29T02:11:37.073Z,11.60
2023-04-29T02:14:09.857Z,11.60
2023-04-29T02:16:46.174Z,11.70
2023-04-29T02:19:20.015Z,11.70
2023-04-29T02:21:53.078Z,11.70
2023-04-29T02:24:26.200Z,11.70
2023-04-29T02:26:59.614Z,11.80
2023-04-29T02:29:33.386Z,11.80
2023-04-29T02:32:07.191Z,11.80
2023-04-29T02:34:40.048Z,11.80
2023-04-29T02:37:13.134Z,11.80
2023-04-29T02:39:47.218Z,11.90
2023-04-29T02:42:20.389Z,11.90
2023-04-29T02:44:53.446Z,11.90
2023-04-29T02:47:26.285Z,11.90
2023-04-29T02:49:59.305Z,11.90
2023-04-29T02:52:32.025Z,12.00
2023-04-29T02:55:05.207Z,12.00
2023-04-29T02:57:38.023Z,12.00
2023-04-29T03:00:11.468Z,12.00
2023-04-29T03:02:44.343Z,11.90
2023-04-29T03:05:17.096Z,11.90
2023-04-29T03:07:49.861Z,11.90
2023-04-29T03:10:22.669Z,12.00
2023-04-29T03:12:55.565Z,12.00
2023-04-29T03:15:28.816Z,12.00
2023-04-29T03:18:03.883Z,11.90
2023-04-29T03:20:37.011Z,11.90
2023-04-29T03:23:10.915Z,11.90
2023-04-29T03:25:44.162Z,12.00
2023-04-29T03:28:17.078Z,12.00
2023-04-29T03:30:49.919Z,12.00
2023-04-29T03:33:22.852Z,12.00
2023-04-29T03:35:56.684Z,12.00
2023-04-29T03:38:38.183Z,12.00
2023-04-29T03:41:11.228Z,12.00
2023-04-29T03:43:46.614Z,12.00
2023-04-29T03:46:19.470Z,12.00
2023-04-29T03:48:52.740Z,12.00
2023-04-29T03:51:26.316Z,12.10
2023-04-29T03:54:06.604Z,12.10
2023-04-29T03:56:39.718Z,12.10
2023-04-29T03:59:12.618Z,12.10
2023-04-29T04:01:46.740Z,12.00
2023-04-29T04:04:19.828Z,12.00
2023-04-29T04:06:55.180Z,12.10
2023-04-29T04:09:33.454Z,12.10
2023-04-29T04:12:26.370Z,12.10
2023-04-29T04:14:59.231Z,12.10
2023-04-29T04:17:32.739Z,12.10
2023-04-29T04:20:06.489Z,12.10
2023-04-29T04:22:39.839Z,12.10
2023-04-29T04:25:39.230Z,12.10
2023-04-29T04:28:31.086Z,12.00
2023-04-29T04:31:14.515Z,12.00
2023-04-29T04:33:48.527Z,12.00
2023-04-29T04:36:21.458Z,12.00
2023-04-29T04:38:54.571Z,12.00
2023-04-29T04:41:27.464Z,11.90
2023-04-29T04:44:00.493Z,11.90
2023-04-29T04:46:45.111Z,11.90
2023-04-29T04:49:21.435Z,11.80
2023-04-29T04:51:59.060Z,11.80
2023-04-29T04:54:32.340Z,11.80
2023-04-29T04:57:22.237Z,11.70
2023-04-29T04:59:55.116Z,11.70
2023-04-29T05:02:28.061Z,11.70
2023-04-29T05:05:01.431Z,11.70
2023-04-29T05:07:37.343Z,11.70
2023-04-29T05:10:11.469Z,11.70
2023-04-29T05:12:57.664Z,11.70
2023-04-29T05:15:31.714Z,11.80
2023-04-29T05:18:06.681Z,11.80
2023-04-29T05:20:42.060Z,11.80
2023-04-29T05:23:15.311Z,11.80
2023-04-29T05:25:49.634Z,11.90
2023-04-29T05:28:24.403Z,11.90
2023-04-29T05:30:58.137Z,11.90
2023-04-29T05:33:30.935Z,11.80
2023-04-29T05:36:03.943Z,11.80
2023-04-29T05:38:38.202Z,11.80
2023-04-29T05:41:14.386Z,11.90
2023-04-29T05:44:13.445Z,11.90
2023-04-29T05:46:48.792Z,11.90
2023-04-29T05:49:21.870Z,11.90
2023-04-29T05:51:54.712Z,11.90
2023-04-29T05:54:27.817Z,11.90
2023-04-29T05:57:04.796Z,11.90
2023-04-29T05:59:37.953Z,11.80
2023-04-29T06:02:12.381Z,11.80
2023-04-29T06:04:47.964Z,11.80
2023-04-29T06:07:32.799Z,11.80
2023-04-29T06:10:24.116Z,11.80
2023-04-29T06:12:57.127Z,11.90
2023-04-29T06:15:30.520Z,11.90
2023-04-29T06:18:03.564Z,11.90
2023-04-29T06:20:37.565Z,11.90
2023-04-29T06:23:10.686Z,11.90
2023-04-29T06:25:43.564Z,11.90
2023-04-29T06:28:16.706Z,11.90
2023-04-29T06:30:50.355Z,12.00
2023-04-29T06:33:24.162Z,12.00
2023-04-29T06:35:57.282Z,12.00
2023-04-29T06:38:49.325Z,12.10
2023-04-29T06:41:32.967Z,12.10
2023-04-29T06:44:30.194Z,12.10
2023-04-29T06:47:21.152Z,12.10
2023-04-29T06:50:01.081Z,12.10
2023-04-29T06:52:34.654Z,12.20
2023-04-29T06:55:08.417Z,12.20
2023-04-29T06:57:41.426Z,12.20
2023-04-29T07:00:16.073Z,12.20
2023-04-29T07:02:49.224Z,12.20
2023-04-29T07:05:22.100Z,12.10
2023-04-29T07:07:55.020Z,12.10
2023-04-29T07:10:28.142Z,12.00
2023-04-29T07:13:01.247Z,12.00
2023-04-29T07:15:35.417Z,12.00
2023-04-29T07:18:09.218Z,12.00
2023-04-29T07:20:44.432Z,12.00
2023-04-29T07:23:17.393Z,12.00
2023-04-29T07:25:50.116Z,12.00
2023-04-29T07:28:22.950Z,12.00
2023-04-29T07:30:58.454Z,12.00
2023-04-29T07:33:32.960Z,12.00
2023-04-29T07:36:07.344Z,12.00
2023-04-29T07:38:40.280Z,11.90
2023-04-29T07:41:14.252Z,11.90
2023-04-29T07:43:47.052Z,11.90
2023-04-29T07:46:20.246Z,11.90
2023-04-29T07:48:53.408Z,12.00
2023-04-29T07:51:29.236Z,12.00
2023-04-29T07:54:02.036Z,12.00
2023-04-29T07:56:35.229Z,12.00
2023-04-29T07:59:08.127Z,12.00
2023-04-29T08:01:42.447Z,12.10
2023-04-29T08:04:15.584Z,12.10
2023-04-29T08:06:55.127Z,12.10
2023-04-29T08:09:30.055Z,12.20
2023-04-29T08:17:51.815Z,12.20
2023-04-29T08:20:27.366Z,12.20
2023-04-29T08:23:03.201Z,12.20
2023-04-29T08:31:20.470Z,12.20
2023-04-29T08:33:53.775Z,12.20
2023-04-29T08:36:31.706Z,12.20
2023-04-29T08:39:05.848Z,12.30
2023-04-29T08:41:39.145Z,12.30
2023-04-29T08:47:00.560Z,12.40
2023-04-29T08:49:34.512Z,12.40
2023-04-29T08:52:09.210Z,12.40
2023-04-29T08:54:46.011Z,12.50
2023-04-29T08:57:26.891Z,12.50
2023-04-29T09:00:01.457Z,12.50
2023-04-29T09:02:41.545Z,12.50
2023-04-29T09:05:14.864Z,12.40
2023-04-29T09:07:50.401Z,12.40
2023-04-29T09:10:23.890Z,12.30
2023-04-29T09:12:58.825Z,12.40
2023-04-29T09:15:46.509Z,12.40
2023-04-29T09:18:45.790Z,12.30
2023-04-29T09:21:23.374Z,12.30
2023-04-29T09:23:59.500Z,12.40
2023-04-29T09:26:43.510Z,12.40
2023-04-29T09:32:20.512Z,12.50
2023-04-29T09:34:54.044Z,12.50
2023-04-29T09:46:15.627Z,12.50
2023-04-29T09:52:15.476Z,12.60
2023-04-29T09:54:56.078Z,12.70
2023-04-29T09:57:42.145Z,12.70
2023-04-29T10:00:17.827Z,12.80
2023-04-29T10:02:55.897Z,12.90
2023-04-29T10:05:35.873Z,13.00
2023-04-29T10:08:10.502Z,13.00
2023-04-29T10:10:46.524Z,13.20
2023-04-29T10:16:30.475Z,13.30
2023-04-29T10:19:07.737Z,13.40
2023-04-29T10:21:40.485Z,13.30
2023-04-29T10:24:15.115Z,13.30
2023-04-29T10:26:51.558Z,13.20
2023-04-29T10:29:28.374Z,13.20
2023-04-29T10:32:01.805Z,13.20
2023-04-29T10:34:37.511Z,13.10
2023-04-29T10:37:12.063Z,13.10
2023-04-29T10:40:01.381Z,13.10
2023-04-29T10:42:47.370Z,13.10
2023-04-29T10:45:28.839Z,13.10
2023-04-29T10:48:10.579Z,13.10
2023-04-29T10:50:49.543Z,13.00
2023-04-29T10:53:22.526Z,13.00
2023-04-29T10:56:04.604Z,13.00
2023-04-29T10:58:44.795Z,13.00
2023-04-29T11:01:18.028Z,12.90
2023-04-29T11:03:56.099Z,12.90
2023-04-29T11:06:35.123Z,12.90
2023-04-29T11:09:14.474Z,12.90
2023-04-29T11:11:58.232Z,13.00
2023-04-29T11:14:37.851Z,13.10
2023-04-29T11:17:16.913Z,13.10
2023-04-29T11:19:53.688Z,13.20
2023-04-29T11:22:28.007Z,13.20
2023-04-29T11:25:06.072Z,13.20
2023-04-29T11:27:42.578Z,13.20
2023-04-29T11:30:17.191Z,13.30
2023-04-29T11:32:51.963Z,13.20
2023-04-29T11:35:24.867Z,13.20
2023-04-29T11:38:00.384Z,13.20
2023-04-29T11:40:33.293Z,13.20
2023-04-29T11:43:06.398Z,13.30
2023-04-29T11:45:40.928Z,13.20
2023-04-29T11:48:25.404Z,13.20
2023-04-29T11:50:59.594Z,13.20
2023-04-29T11:53:33.341Z,13.30
2023-04-29T11:56:06.810Z,13.20
2023-04-29T11:58:40.241Z,13.20
2023-04-29T12:01:13.998Z,13.20
2023-04-29T12:03:48.733Z,13.20
2023-04-29T12:06:27.132Z,13.20
2023-04-29T12:11:53.322Z,13.30
2023-04-29T12:14:26.511Z,13.40
2023-04-29T12:16:59.978Z,13.40
2023-04-29T12:19:33.151Z,13.50
2023-04-29T12:22:08.232Z,13.50
2023-04-29T12:24:41.290Z,13.60
2023-04-29T12:27:13.991Z,13.70
2023-04-29T12:29:47.174Z,13.70
2023-04-29T12:32:23.834Z,13.70
2023-04-29T12:34:57.419Z,13.80
2023-04-29T12:37:30.332Z,13.80
2023-04-29T12:40:04.170Z,13.80
2023-04-29T12:42:37.055Z,13.80
2023-04-29T12:45:25.828Z,13.80
2023-04-29T12:48:00.873Z,13.80
2023-04-29T12:50:36.422Z,13.80
2023-04-29T12:53:09.546Z,13.70
2023-04-29T12:55:42.520Z,13.70
2023-04-29T12:58:15.306Z,13.70
2023-04-29T13:00:48.295Z,13.70
2023-04-29T13:03:22.880Z,13.70
2023-04-29T13:05:56.336Z,13.60
2023-04-29T13:08:29.380Z,13.60
2023-04-29T13:11:02.762Z,13.60
2023-04-29T13:13:35.799Z,13.60
2023-04-29T13:16:09.216Z,13.70
2023-04-29T13:18:49.231Z,13.70
2023-04-29T13:21:34.709Z,13.70
2023-04-29T13:24:08.646Z,13.80
2023-04-29T13:26:41.446Z,13.90
2023-04-29T13:29:14.942Z,13.90
2023-04-29T13:31:48.089Z,14.00
2023-04-29T13:34:21.408Z,14.00
2023-04-29T13:36:54.268Z,14.00
2023-04-29T13:39:27.377Z,14.00
2023-04-29T13:42:00.197Z,14.00
2023-04-29T13:44:46.066Z,13.90
2023-04-29T13:47:26.036Z,13.80
2023-04-29T13:50:37.014Z,13.70
2023-04-29T13:56:15.097Z,13.60
2023-04-29T14:03:35.804Z,13.50
2023-04-29T14:06:09.465Z,13.50
2023-04-29T14:08:42.218Z,13.60
2023-04-29T14:11:15.553Z,13.60
2023-04-29T14:13:49.359Z,13.70
2023-04-29T14:16:22.156Z,13.70
2023-04-29T14:18:55.295Z,13.80
2023-04-29T14:21:28.451Z,13.90
2023-04-29T14:24:04.583Z,13.90
2023-04-29T14:26:37.763Z,14.10
2023-04-29T14:29:10.986Z,14.10
2023-04-29T14:31:44.167Z,14.10
2023-04-29T14:34:17.173Z,14.20
2023-04-29T14:36:50.139Z,14.10
2023-04-29T14:39:23.492Z,14.10
2023-04-29T14:41:56.251Z,14.10
2023-04-29T14:44:31.218Z,14.10
2023-04-29T14:47:05.210Z,14.20
2023-04-29T14:49:37.982Z,14.20
2023-04-29T14:52:10.844Z,14.20
2023-04-29T14:54:43.696Z,14.20
2023-04-29T14:57:16.568Z,14.20
2023-04-29T14:59:50.595Z,14.30
2023-04-29T15:02:23.499Z,14.40
2023-04-29T15:04:56.636Z,14.50
2023-04-29T15:07:31.538Z,14.50
2023-04-29T15:10:06.746Z,14.60
2023-04-29T15:12:46.803Z,14.50
2023-04-29T15:15:21.936Z,14.50
2023-04-29T15:17:55.204Z,14.40
2023-04-29T15:20:28.042Z,14.40
2023-04-29T15:23:01.738Z,14.30
2023-04-29T15:25:36.246Z,14.20
2023-04-29T15:28:09.355Z,14.20
2023-04-29T15:30:42.860Z,14.20
2023-04-29T15:33:18.796Z,14.10
2023-04-29T15:35:51.569Z,14.00
2023-04-29T15:38:24.428Z,13.90
2023-04-29T15:41:01.319Z,13.90
2023-04-29T15:43:34.377Z,13.90
2023-04-29T15:46:07.152Z,13.90
2023-04-29T15:48:39.965Z,13.90
2023-04-29T15:51:14.919Z,13.90
2023-04-29T15:53:48.930Z,13.80
2023-04-29T15:56:21.762Z,13.90
2023-04-29T15:58:54.525Z,13.80
2023-04-29T16:01:28.251Z,13.70
2023-04-29T16:04:01.126Z,13.70
2023-04-29T16:06:34.078Z,13.80
2023-04-29T16:09:07.002Z,13.90
2023-04-29T16:11:39.696Z,13.90
2023-04-29T16:14:12.533Z,13.90
2023-04-29T16:16:45.800Z,13.90
2023-04-29T16:19:18.740Z,13.90
2023-04-29T16:21:51.480Z,13.80
2023-04-29T16:24:26.207Z,13.80
2023-04-29T16:26:59.397Z,13.70
2023-04-29T16:29:32.651Z,13.70
2023-04-29T16:32:05.817Z,13.60
2023-04-29T16:34:38.931Z,13.60
2023-04-29T16:37:12.738Z,13.60
2023-04-29T16:39:45.776Z,13.50
2023-04-29T16:42:19.505Z,13.50
2023-04-29T16:44:52.278Z,13.50
2023-04-29T16:47:25.191Z,13.50
2023-04-29T16:49:58.158Z,13.40
2023-04-29T16:52:30.940Z,13.40
2023-04-29T16:55:03.983Z,13.40
2023-04-29T16:57:37.380Z,13.20
2023-04-29T17:00:11.327Z,13.20
2023-04-29T17:02:46.369Z,13.20
2023-04-29T17:05:20.635Z,13.20
2023-04-29T17:07:54.611Z,13.20
2023-04-29T17:10:27.604Z,13.20
2023-04-29T17:13:00.383Z,13.10
2023-04-29T17:15:33.261Z,13.10
2023-04-29T17:18:06.334Z,13.10
2023-04-29T17:20:39.421Z,13.00
2023-04-29T17:23:12.505Z,13.00
2023-04-29T17:25:45.367Z,13.00
2023-04-29T17:28:18.381Z,13.00
2023-04-29T17:30:52.948Z,13.10
2023-04-29T17:33:35.781Z,13.00
2023-04-29T17:36:08.530Z,13.00
2023-04-29T17:38:41.257Z,13.00
2023-04-29T17:41:14.249Z,12.90
2023-04-29T17:43:47.289Z,12.90
2023-04-29T17:46:20.196Z,12.90
2023-04-29T17:48:52.995Z,12.90
2023-04-29T17:51:26.197Z,13.00
2023-04-29T17:54:00.378Z,13.00
2023-04-29T17:56:34.841Z,13.00
2023-04-29T17:59:08.631Z,13.00
2023-04-29T18:01:41.688Z,13.10
2023-04-29T18:04:14.480Z,13.10
2023-04-29T18:06:47.225Z,13.10
2023-04-29T18:09:20.582Z,13.00
2023-04-29T18:11:53.487Z,13.10
2023-04-29T18:14:29.242Z,13.00
2023-04-29T18:17:02.316Z,13.00
2023-04-29T18:19:35.441Z,13.00
2023-04-29T18:22:09.651Z,13.00
2023-04-29T18:24:49.265Z,13.00
2023-04-29T18:27:22.446Z,12.90
2023-04-29T18:29:55.654Z,12.80
2023-04-29T18:32:28.773Z,12.80
2023-04-29T18:35:02.103Z,12.70
2023-04-29T18:37:35.913Z,12.70
2023-04-29T18:40:13.537Z,12.70
2023-04-29T18:42:46.605Z,12.60
2023-04-29T18:45:19.813Z,12.60
2023-04-29T18:47:53.141Z,12.60
2023-04-29T18:50:26.526Z,12.60
2023-04-29T18:53:01.495Z,12.60
2023-04-29T18:55:35.533Z,12.50
2023-04-29T18:58:11.840Z,12.60
2023-04-29T19:00:48.343Z,12.60
2023-04-29T19:03:21.132Z,12.60
2023-04-29T19:05:53.951Z,12.60
2023-04-29T19:08:26.896Z,12.60
2023-04-29T19:11:00.837Z,12.60
2023-04-29T19:13:37.518Z,12.50
2023-04-29T19:16:11.073Z,12.50
2023-04-29T19:18:46.036Z,12.50
2023-04-29T19:26:54.578Z,12.40
2023-04-29T19:29:30.908Z,12.40
2023-04-29T19:32:07.754Z,12.40
2023-04-29T19:34:48.280Z,12.40
2023-04-29T19:40:13.302Z,12.30
2023-04-29T19:42:46.193Z,12.30
2023-04-29T19:50:54.817Z,12.20
2023-04-29T19:56:14.732Z,12.10
2023-04-29T19:58:49.178Z,12.10
2023-04-29T20:01:25.700Z,12.10
2023-04-29T20:04:00.212Z,12.10
2023-04-29T20:06:35.194Z,12.00
2023-04-29T20:09:09.529Z,12.00
2023-04-29T20:11:42.593Z,12.00
2023-04-29T20:14:16.196Z,11.90
2023-04-29T20:16:49.344Z,11.90
2023-04-29T20:19:23.440Z,11.90
2023-04-29T20:21:57.145Z,11.90
2023-04-29T20:27:18.353Z,11.90
2023-04-29T20:29:51.281Z,11.90
2023-04-29T20:32:24.448Z,11.80
2023-04-29T20:34:59.352Z,11.80
2023-04-29T20:37:33.119Z,11.80
2023-04-29T20:40:08.166Z,11.70
2023-04-29T20:45:31.943Z,11.70
2023-04-29T20:48:06.396Z,11.70
2023-04-29T20:53:37.297Z,11.70
2023-04-29T20:56:11.540Z,11.70
2023-04-29T20:58:44.746Z,11.70
2023-04-29T21:01:19.281Z,11.70
2023-04-29T21:03:52.188Z,11.70
2023-04-29T21:06:28.378Z,11.70
2023-04-29T21:09:01.292Z,11.70
2023-04-29T21:11:34.086Z,11.70
2023-04-29T21:14:07.168Z,11.70
2023-04-29T21:16:41.030Z,11.60
2023-04-29T21:19:15.373Z,11.60
2023-04-29T21:21:48.230Z,11.60
2023-04-29T21:24:20.953Z,11.60
2023-04-29T21:26:53.755Z,11.50
2023-04-29T21:29:26.606Z,11.50
2023-04-29T21:31:59.444Z,11.50
2023-04-29T21:34:32.499Z,11.50
2023-04-29T21:37:05.489Z,11.40
2023-04-29T21:39:38.278Z,11.40
2023-04-29T21:42:13.466Z,11.40
2023-04-29T21:44:46.556Z,11.40
2023-04-29T21:47:19.646Z,11.40
2023-04-29T21:49:54.012Z,11.40
2023-04-29T21:52:27.468Z,11.40
2023-04-29T21:55:01.460Z,11.40
2023-04-29T21:57:43.791Z,11.40
2023-04-29T22:00:33.178Z,11.40
2023-04-29T22:03:10.639Z,11.30
2023-04-29T22:05:44.063Z,11.40
2023-04-29T22:08:16.968Z,11.40
2023-04-29T22:10:50.287Z,11.40
2023-04-29T22:13:24.608Z,11.40
2023-04-29T22:15:57.466Z,11.40
2023-04-29T22:18:30.265Z,11.40
2023-04-29T22:21:03.525Z,11.40
2023-04-29T22:23:37.856Z,11.40
2023-04-29T22:26:10.933Z,11.30
2023-04-29T22:28:43.664Z,11.30
2023-04-29T22:31:16.651Z,11.30
2023-04-29T22:33:51.232Z,11.30
2023-04-29T22:36:24.068Z,11.30
2023-04-29T22:38:57.145Z,11.30
2023-04-29T22:41:29.886Z,11.30
2023-04-29T22:44:03.022Z,11.30
2023-04-29T22:46:36.140Z,11.30
2023-04-29T22:49:09.131Z,11.30
2023-04-29T22:51:42.362Z,11.30
2023-04-29T22:54:15.538Z,11.30
2023-04-29T22:56:48.627Z,11.30
2023-04-29T22:59:21.685Z,11.30
2023-04-29T23:01:54.714Z,11.20
2023-04-29T23:04:29.218Z,11.20
2023-04-29T23:07:02.297Z,11.20
2023-04-29T23:09:35.071Z,11.20
2023-04-29T23:12:08.145Z,11.20
2023-04-29T23:14:42.031Z,11.10
2023-04-29T23:17:14.972Z,11.10
2023-04-29T23:19:47.905Z,11.10
2023-04-29T23:22:20.765Z,11.10
2023-04-29T23:24:54.267Z,11.10
2023-04-29T23:27:27.016Z,11.10
2023-04-29T23:30:00.164Z,11.10
2023-04-29T23:32:33.267Z,11.00
2023-04-29T23:35:06.541Z,11.10
2023-04-29T23:37:39.725Z,11.10
2023-04-29T23:40:12.519Z,11.10
2023-04-29T23:42:45.261Z,11.10
2023-04-29T23:45:18.446Z,11.10
2023-04-29T23:47:51.370Z,11.10
2023-04-29T23:50:24.292Z,11.10
2023-04-29T23:52:57.304Z,11.10
2023-04-29T23:55:31.611Z,11.10
2023-04-29T23:58:04.610Z,11.20
